Schedule Details


Flight Number: CTN441
Departure: Schwechat (LOWW) at 10:10
Arrival: Franjo Tudman (LDZA) at 11:05
Route: SASAL?DCT?SUNIS?DCT?PETOV

Weather Information
LOWW 242120Z 34005KT CAVOK 21/16 Q1022 NOSIG
LDZA 242100Z 33002KT CAVOK 22/18 Q1021 NOSIG
Schedule Frequency

Route Map